TimeCDT,TemperatureF,Dew PointF,Humidity,Sea Level PressureIn,VisibilityMPH,Wind Direction,Wind SpeedMPH,Gust SpeedMPH,PrecipitationIn,Events,Conditions,WindDirDegrees,DateUTC
12:15 AM,42.8,41.0,93,29.83,10.0,South,5.8,-,N/A,,Clear,190,2013-10-06 05:15:00
12:35 AM,44.6,41.0,87,29.82,10.0,South,5.8,-,N/A,,Clear,180,2013-10-06 05:35:00
12:55 AM,44.6,41.0,87,29.81,10.0,South,6.9,-,N/A,,Clear,180,2013-10-06 05:55:00
1:15 AM,44.6,41.0,87,29.81,10.0,South,8.1,-,N/A,,Clear,190,2013-10-06 06:15:00
1:35 AM,44.6,41.0,87,29.81,10.0,SSW,5.8,-,N/A,,Clear,210,2013-10-06 06:35:00
1:55 AM,44.6,41.0,87,29.80,10.0,SSW,5.8,-,N/A,,Clear,210,2013-10-06 06:55:00
2:15 AM,44.6,39.2,81,29.80,10.0,SW,5.8,-,N/A,,Clear,220,2013-10-06 07:15:00
2:35 AM,42.8,39.2,87,29.79,10.0,SW,5.8,-,N/A,,Clear,220,2013-10-06 07:35:00
2:55 AM,42.8,39.2,87,29.79,10.0,SW,5.8,-,N/A,,Clear,230,2013-10-06 07:55:00
3:15 AM,42.8,39.2,87,29.78,10.0,SW,4.6,-,N/A,,Clear,220,2013-10-06 08:15:00
3:35 AM,41.0,39.2,93,29.78,10.0,SSW,4.6,-,N/A,,Clear,210,2013-10-06 08:35:00
3:55 AM,41.0,39.2,93,29.78,10.0,SW,6.9,-,N/A,,Clear,220,2013-10-06 08:55:00
4:15 AM,41.0,39.2,93,29.78,10.0,SW,5.8,-,N/A,,Clear,220,2013-10-06 09:15:00
4:35 AM,41.0,39.2,93,29.79,10.0,SW,5.8,-,N/A,,Clear,230,2013-10-06 09:35:00
4:55 AM,41.0,37.4,87,29.78,10.0,SW,5.8,-,N/A,,Clear,230,2013-10-06 09:55:00
5:15 AM,41.0,37.4,87,29.78,10.0,SW,5.8,-,N/A,,Clear,220,2013-10-06 10:15:00
5:35 AM,39.2,37.4,93,29.78,10.0,SSW,4.6,-,N/A,,Clear,200,2013-10-06 10:35:00
5:55 AM,39.2,37.4,93,29.78,10.0,SSW,5.8,-,N/A,,Clear,200,2013-10-06 10:55:00
6:15 AM,39.2,37.4,93,29.78,10.0,SSW,5.8,-,N/A,,Clear,200,2013-10-06 11:15:00
6:35 AM,39.2,37.4,93,29.78,10.0,SSW,6.9,-,N/A,,Clear,200,2013-10-06 11:35:00
6:55 AM,39.2,37.4,93,29.78,10.0,SSW,6.9,-,N/A,,Clear,210,2013-10-06 11:55:00
7:15 AM,39.2,37.4,93,29.78,10.0,SW,5.8,-,N/A,,Clear,220,2013-10-06 12:15:00
7:35 AM,39.2,37.4,93,29.77,10.0,SSW,5.8,-,N/A,,Clear,210,2013-10-06 12:35:00
7:55 AM,41.0,37.4,87,29.78,10.0,SSW,5.8,-,N/A,,Clear,210,2013-10-06 12:55:00
8:15 AM,41.0,39.2,93,29.78,10.0,SW,5.8,-,N/A,,Mostly Cloudy,230,2013-10-06 13:15:00
8:35 AM,44.6,39.2,81,29.77,10.0,WSW,9.2,-,N/A,,Overcast,250,2013-10-06 13:35:00
8:55 AM,44.6,39.2,81,29.78,10.0,WSW,8.1,-,N/A,,Overcast,240,2013-10-06 13:55:00
9:15 AM,44.6,39.2,81,29.78,10.0,WSW,9.2,-,N/A,,Overcast,250,2013-10-06 14:15:00
9:35 AM,46.4,39.2,76,29.78,10.0,WSW,6.9,-,N/A,,Overcast,240,2013-10-06 14:35:00
9:55 AM,48.2,41.0,76,29.77,10.0,SW,8.1,-,N/A,,Overcast,230,2013-10-06 14:55:00
10:15 AM,48.2,39.2,71,29.78,10.0,West,9.2,-,N/A,,Overcast,270,2013-10-06 15:15:00
10:35 AM,48.2,39.2,71,29.78,10.0,West,10.4,-,N/A,,Overcast,270,2013-10-06 15:35:00
10:55 AM,48.2,39.2,71,29.79,10.0,WSW,9.2,-,N/A,,Overcast,250,2013-10-06 15:55:00
11:15 AM,48.2,39.2,71,29.79,10.0,WSW,10.4,-,N/A,,Overcast,250,2013-10-06 16:15:00
11:35 AM,50.0,39.2,66,29.79,10.0,SW,8.1,-,N/A,,Overcast,230,2013-10-06 16:35:00
11:55 AM,51.8,39.2,62,29.78,10.0,SW,8.1,13.8,N/A,,Overcast,220,2013-10-06 16:55:00
12:15 PM,51.8,37.4,58,29.78,10.0,WSW,8.1,15.0,N/A,,Overcast,240,2013-10-06 17:15:00
12:35 PM,50.0,39.2,66,29.78,10.0,WSW,8.1,-,N/A,,Overcast,240,2013-10-06 17:35:00
12:55 PM,50.0,39.2,66,29.77,10.0,SW,9.2,-,N/A,,Overcast,230,2013-10-06 17:55:00
1:15 PM,50.0,39.2,66,29.77,10.0,SW,8.1,15.0,N/A,,Overcast,230,2013-10-06 18:15:00
1:35 PM,48.2,41.0,76,29.76,6.0,SW,9.2,-,N/A,Rain,Light Rain,230,2013-10-06 18:35:00
1:55 PM,46.4,42.8,87,29.76,2.0,West,6.9,-,0.01,Rain,Light Rain,260,2013-10-06 18:55:00
2:15 PM,46.4,44.6,93,29.75,10.0,West,6.9,-,N/A,,Overcast,260,2013-10-06 19:15:00
2:35 PM,48.2,42.8,82,29.76,10.0,West,10.4,-,N/A,,Overcast,260,2013-10-06 19:35:00
2:55 PM,48.2,42.8,82,29.75,10.0,WSW,6.9,-,N/A,,Mostly Cloudy,240,2013-10-06 19:55:00
3:15 PM,48.2,42.8,82,29.76,10.0,West,5.8,13.8,N/A,,Overcast,260,2013-10-06 20:15:00
3:35 PM,50.0,41.0,71,29.75,10.0,West,9.2,-,N/A,,Overcast,260,2013-10-06 20:35:00
3:55 PM,50.0,41.0,71,29.76,10.0,West,10.4,-,0.01,,Mostly Cloudy,270,2013-10-06 20:55:00
4:15 PM,48.2,41.0,76,29.77,10.0,West,13.8,20.7,N/A,,Overcast,260,2013-10-06 21:15:00
4:35 PM,46.4,42.8,87,29.77,10.0,WSW,8.1,13.8,N/A,,Mostly Cloudy,240,2013-10-06 21:35:00
4:55 PM,46.4,44.6,93,29.78,9.0,West,6.9,12.7,N/A,Rain,Light Rain,260,2013-10-06 21:55:00
5:15 PM,46.4,44.6,93,29.78,5.0,West,6.9,-,N/A,Rain,Light Rain,270,2013-10-06 22:15:00
5:35 PM,48.2,44.6,87,29.79,9.0,West,6.9,-,N/A,Rain,Light Rain,260,2013-10-06 22:35:00
5:55 PM,46.4,44.6,93,29.79,9.0,West,6.9,-,N/A,Rain,Light Rain,270,2013-10-06 22:55:00
6:15 PM,46.4,44.6,93,29.79,10.0,WSW,5.8,-,N/A,,Overcast,250,2013-10-06 23:15:00
6:35 PM,46.4,44.6,93,29.79,10.0,WSW,4.6,-,N/A,,Overcast,240,2013-10-06 23:35:00
6:55 PM,46.4,44.6,93,29.80,10.0,WSW,4.6,-,N/A,,Overcast,250,2013-10-06 23:55:00
7:15 PM,46.4,44.6,93,29.80,10.0,West,4.6,-,N/A,,Overcast,260,2013-10-07 00:15:00
7:35 PM,46.4,44.6,93,29.81,10.0,West,5.8,-,N/A,,Overcast,260,2013-10-07 00:35:00
7:55 PM,46.4,44.6,93,29.81,10.0,West,5.8,-,N/A,,Overcast,270,2013-10-07 00:55:00
8:15 PM,46.4,46.4,100,29.81,10.0,West,5.8,-,N/A,,Overcast,270,2013-10-07 01:15:00
8:35 PM,46.4,46.4,100,29.81,10.0,West,6.9,-,N/A,,Overcast,280,2013-10-07 01:35:00
8:55 PM,46.4,46.4,100,29.82,10.0,Variable,5.8,-,N/A,,Overcast,0,2013-10-07 01:55:00
9:15 PM,46.4,46.4,100,29.82,10.0,West,5.8,-,N/A,,Overcast,280,2013-10-07 02:15:00
9:35 PM,46.4,46.4,100,29.83,-9999.0,WNW,6.9,-,N/A,,Overcast,290,2013-10-07 02:35:00
9:55 PM,48.2,46.4,93,29.84,10.0,WNW,8.1,-,N/A,,Overcast,290,2013-10-07 02:55:00
10:15 PM,48.2,46.4,93,29.84,10.0,West,8.1,-,N/A,,Overcast,280,2013-10-07 03:15:00
10:35 PM,48.2,46.4,93,29.84,10.0,West,8.1,-,N/A,,Overcast,280,2013-10-07 03:35:00
10:55 PM,48.2,46.4,93,29.85,10.0,West,8.1,-,N/A,,Overcast,270,2013-10-07 03:55:00
11:15 PM,48.2,46.4,93,29.85,10.0,West,5.8,11.5,N/A,,Overcast,270,2013-10-07 04:15:00
11:35 PM,48.2,46.4,93,29.86,10.0,West,9.2,-,N/A,,Overcast,280,2013-10-07 04:35:00
11:55 PM,48.2,46.4,93,29.85,10.0,West,8.1,-,N/A,,Overcast,280,2013-10-07 04:55:00